X  Sluiten METAR luchtvaart weer gegevens      EHBK Maastricht Aachen Airport
Temperatuur
16°C Temperatuur
14°C Dauwpunt
88% Vochtigheid



Wind
3 M/S
7 MPH
11 KM/U
6 KTS



200°
ZZW
Huidig weer

Grotendeels bewolkt Grotendeels bewolkt
Luchtdruk 1006.77 (hPa) - 29.73 (inHg)
Zicht 6 (mijl) - 9.7 (km)
Vliegveld
Vliegveld code EHBK

Locatie : Maastricht Aachen Airport
Afstand: 26 (km)

Metar:
EHBK 161755Z AUTO 20006KT 9999 BKN041 16/14 Q1007 NOSIG

Tijd: 16-06-2024 19:55 CEST